createdAt,value
2017-12-20T05:00:56.029Z,0
2017-12-20T05:01:21.511Z,0
2017-12-20T05:01:47.003Z,0
2017-12-20T05:02:12.489Z,0
2017-12-20T05:02:37.975Z,0
2017-12-20T05:03:03.453Z,0
2017-12-20T05:03:28.908Z,0
2017-12-20T05:03:54.441Z,0
2017-12-20T05:04:19.916Z,0
2017-12-20T05:04:45.380Z,0
2017-12-20T05:05:10.971Z,0
2017-12-20T05:05:36.431Z,0
2017-12-20T05:06:01.926Z,0
2017-12-20T05:06:27.405Z,0
2017-12-20T05:07:36.097Z,0
2017-12-20T05:08:01.604Z,0
2017-12-20T05:08:27.104Z,0
2017-12-20T05:08:52.587Z,0
2017-12-20T05:09:18.124Z,0
2017-12-20T05:09:43.606Z,0
2017-12-20T05:10:09.118Z,0
2017-12-20T05:10:34.578Z,0
2017-12-20T05:11:00.069Z,0
2017-12-20T05:11:25.558Z,0
2017-12-20T05:11:51.030Z,0
2017-12-20T05:12:16.687Z,0
2017-12-20T05:12:42.171Z,0
2017-12-20T05:13:07.648Z,0
2017-12-20T05:13:33.132Z,0
2017-12-20T05:13:58.647Z,0
2017-12-20T05:14:24.131Z,0
2017-12-20T05:14:49.642Z,0
2017-12-20T05:15:15.116Z,0
2017-12-20T05:15:40.579Z,0
2017-12-20T05:16:06.071Z,0
2017-12-20T05:16:31.563Z,0
2017-12-20T05:16:57.063Z,0
2017-12-20T05:17:22.556Z,0
2017-12-20T05:17:48.034Z,0
2017-12-20T05:18:13.521Z,0
2017-12-20T05:18:39.050Z,0
2017-12-20T05:19:04.550Z,0
2017-12-20T05:20:13.246Z,0
2017-12-20T05:20:38.756Z,0
2017-12-20T05:21:04.228Z,0
2017-12-20T05:21:29.724Z,0
2017-12-20T05:21:55.207Z,0
2017-12-20T05:22:20.690Z,0
2017-12-20T05:22:46.260Z,0
2017-12-20T05:23:11.718Z,0
2017-12-20T05:23:37.205Z,0
2017-12-20T05:24:02.691Z,0
2017-12-20T05:24:28.188Z,0
2017-12-20T05:24:53.660Z,0
2017-12-20T05:25:19.166Z,0
2017-12-20T05:25:44.678Z,0
2017-12-20T05:26:10.255Z,0
2017-12-20T05:26:35.730Z,0
2017-12-20T05:27:59.238Z,0
2017-12-20T05:28:24.749Z,0
2017-12-20T05:28:50.234Z,0
2017-12-20T05:29:15.736Z,0
2017-12-20T05:29:41.230Z,0
2017-12-20T05:30:06.712Z,0
2017-12-20T05:30:32.178Z,0
2017-12-20T05:30:57.676Z,0
2017-12-20T05:31:23.140Z,0
2017-12-20T05:31:48.619Z,0
2017-12-20T05:32:14.077Z,0
2017-12-20T05:32:39.552Z,0
2017-12-20T05:33:05.051Z,0
2017-12-20T05:33:30.545Z,0
2017-12-20T05:33:56.016Z,0
2017-12-20T05:34:21.537Z,0
2017-12-20T05:34:47.023Z,0
2017-12-20T05:35:12.507Z,0
2017-12-20T05:35:38.019Z,0
2017-12-20T05:36:03.495Z,0
2017-12-20T05:36:28.979Z,0
2017-12-20T05:36:54.493Z,0
2017-12-20T05:37:20.007Z,0
2017-12-20T05:37:45.498Z,0
2017-12-20T05:38:11.013Z,0
2017-12-20T05:38:36.491Z,0
2017-12-20T05:39:02.026Z,0
2017-12-20T05:39:27.516Z,0
2017-12-20T05:39:53.014Z,0
2017-12-20T05:40:18.482Z,0
2017-12-20T05:40:43.979Z,0
2017-12-20T05:41:09.500Z,0
2017-12-20T05:41:35.015Z,0
2017-12-20T05:42:00.508Z,0
2017-12-20T05:42:25.985Z,0
2017-12-20T05:42:51.495Z,0
2017-12-20T05:43:16.995Z,0
2017-12-20T05:43:42.488Z,0
2017-12-20T05:44:07.983Z,0
2017-12-20T05:44:33.467Z,0
2017-12-20T05:44:58.970Z,0
2017-12-20T05:45:24.456Z,0
2017-12-20T05:45:49.945Z,0
2017-12-20T05:47:03.735Z,0
2017-12-20T05:47:29.241Z,0
2017-12-20T05:47:54.712Z,0
2017-12-20T05:48:20.214Z,0
2017-12-20T05:48:45.705Z,0
2017-12-20T05:49:11.200Z,0
2017-12-20T05:49:36.708Z,0
2017-12-20T05:50:02.201Z,0
2017-12-20T05:50:27.703Z,0
2017-12-20T05:50:53.204Z,0
2017-12-20T05:51:18.690Z,0
2017-12-20T05:51:44.191Z,0
2017-12-20T05:52:09.693Z,0
2017-12-20T05:52:35.203Z,0
2017-12-20T05:53:00.651Z,0
2017-12-20T05:53:26.149Z,0
2017-12-20T05:53:51.667Z,0
2017-12-20T05:54:17.164Z,0
2017-12-20T05:54:42.661Z,0
2017-12-20T05:55:08.143Z,0
2017-12-20T05:56:27.030Z,0
2017-12-20T05:56:52.526Z,0
2017-12-20T05:57:18.018Z,0
2017-12-20T05:57:43.499Z,0
2017-12-20T05:58:08.982Z,0
2017-12-20T05:58:34.448Z,0
2017-12-20T05:58:59.980Z,0
2017-12-20T05:59:25.482Z,0
2017-12-20T05:59:50.960Z,0
2017-12-20T06:01:09.391Z,0
2017-12-20T06:01:34.893Z,0
2017-12-20T06:02:00.358Z,0
2017-12-20T06:02:25.852Z,0
2017-12-20T06:02:51.342Z,0
2017-12-20T06:03:16.820Z,0
2017-12-20T06:03:42.290Z,0
2017-12-20T06:04:07.770Z,0
2017-12-20T06:04:33.229Z,0
2017-12-20T06:04:58.721Z,0
2017-12-20T06:05:24.221Z,0
2017-12-20T06:05:49.732Z,0
2017-12-20T06:06:15.240Z,0
2017-12-20T06:06:40.725Z,0
2017-12-20T06:07:06.282Z,0
2017-12-20T06:07:31.788Z,0
2017-12-20T06:07:57.278Z,0
2017-12-20T06:08:22.755Z,0
2017-12-20T06:09:36.632Z,0
2017-12-20T06:10:02.113Z,0
2017-12-20T06:10:27.606Z,0
2017-12-20T06:10:53.099Z,0
2017-12-20T06:11:18.601Z,0
2017-12-20T06:12:42.635Z,0
2017-12-20T06:13:08.136Z,0
2017-12-20T06:13:33.627Z,0
2017-12-20T06:13:59.140Z,0
2017-12-20T06:14:24.625Z,0
2017-12-20T06:14:50.132Z,0
2017-12-20T06:15:15.584Z,0
2017-12-20T06:15:41.067Z,0
2017-12-20T06:16:06.556Z,0
2017-12-20T06:16:32.018Z,0
2017-12-20T06:17:40.735Z,0
2017-12-20T06:18:06.233Z,0
2017-12-20T06:18:31.726Z,0
2017-12-20T06:20:44.036Z,0
2017-12-20T06:21:09.522Z,0
2017-12-20T06:21:35.011Z,0
2017-12-20T06:22:00.484Z,0
2017-12-20T06:22:25.996Z,0
2017-12-20T06:22:51.463Z,0
2017-12-20T06:23:16.946Z,0
2017-12-20T06:23:42.479Z,0
2017-12-20T06:24:07.947Z,0
2017-12-20T06:24:33.392Z,0
2017-12-20T06:24:58.930Z,0
2017-12-20T06:25:24.404Z,0
2017-12-20T06:25:49.901Z,0
2017-12-20T06:26:15.429Z,0
2017-12-20T06:26:40.926Z,0
2017-12-20T06:27:06.445Z,0
2017-12-20T06:27:31.928Z,0
2017-12-20T06:27:57.412Z,0
2017-12-20T06:28:22.903Z,0
2017-12-20T06:28:48.382Z,0
2017-12-20T06:29:13.865Z,0
2017-12-20T06:29:39.324Z,0
2017-12-20T06:30:04.972Z,0
2017-12-20T06:30:30.464Z,0
2017-12-20T06:30:55.958Z,0
2017-12-20T06:31:21.463Z,0
2017-12-20T06:31:46.979Z,0
2017-12-20T06:32:12.426Z,0
2017-12-20T06:32:37.910Z,0
2017-12-20T06:33:03.402Z,0
2017-12-20T06:33:28.884Z,0
2017-12-20T06:33:54.350Z,0
2017-12-20T06:34:19.845Z,0
2017-12-20T06:34:45.362Z,0
2017-12-20T06:35:10.864Z,0
2017-12-20T06:35:36.351Z,0
2017-12-20T06:36:01.859Z,0
2017-12-20T06:36:27.347Z,0
2017-12-20T06:36:52.843Z,0
2017-12-20T06:37:18.346Z,0
2017-12-20T06:37:43.826Z,0
2017-12-20T06:38:09.334Z,0
2017-12-20T06:38:34.807Z,0
2017-12-20T06:39:00.283Z,0
2017-12-20T06:39:25.805Z,0
2017-12-20T06:39:51.305Z,0
2017-12-20T06:40:16.814Z,0
2017-12-20T06:40:42.314Z,0
2017-12-20T06:41:07.801Z,0
2017-12-20T06:41:33.391Z,0
2017-12-20T06:41:58.823Z,0
2017-12-20T06:42:24.308Z,0
2017-12-20T06:42:49.851Z,0
2017-12-20T06:43:15.312Z,0
2017-12-20T06:43:40.806Z,0
2017-12-20T06:44:06.321Z,0
2017-12-20T06:44:31.791Z,0
2017-12-20T06:44:57.270Z,0
2017-12-20T06:45:22.743Z,0
2017-12-20T06:46:46.723Z,0
2017-12-20T06:47:12.197Z,0
2017-12-20T06:47:37.801Z,0
2017-12-20T06:48:03.287Z,0
2017-12-20T06:48:29.010Z,0
2017-12-20T06:48:54.569Z,0
2017-12-20T06:49:20.209Z,0
2017-12-20T06:49:45.677Z,0
2017-12-20T06:50:11.198Z,0
2017-12-20T06:50:36.675Z,0
2017-12-20T06:51:02.153Z,0
2017-12-20T06:51:27.645Z,0
2017-12-20T06:51:53.134Z,0
2017-12-20T06:52:18.644Z,0
2017-12-20T06:52:44.102Z,0
2017-12-20T06:53:09.544Z,0
2017-12-20T06:53:35.010Z,0
2017-12-20T06:54:00.493Z,0
2017-12-20T06:54:25.990Z,0
2017-12-20T06:54:51.481Z,0
2017-12-20T06:55:16.945Z,0
2017-12-20T06:55:42.457Z,0
2017-12-20T06:56:08.011Z,0
2017-12-20T06:56:33.433Z,0
2017-12-20T06:56:58.949Z,0
2017-12-20T06:57:24.333Z,0
2017-12-20T06:57:49.809Z,0
2017-12-20T06:58:15.301Z,0
2017-12-20T06:58:40.785Z,0
2017-12-20T06:59:06.295Z,0
2017-12-20T06:59:31.748Z,0
2017-12-20T06:59:57.225Z,0
2017-12-20T07:00:22.726Z,0
2017-12-20T07:00:48.241Z,0
2017-12-20T07:01:13.704Z,0
2017-12-20T07:01:39.175Z,0
2017-12-20T07:02:04.714Z,0
2017-12-20T07:02:30.185Z,0
2017-12-20T07:02:55.671Z,0
2017-12-20T07:03:21.134Z,0
2017-12-20T07:03:46.596Z,0
2017-12-20T07:04:12.059Z,0
2017-12-20T07:04:37.588Z,0
2017-12-20T07:05:56.503Z,0
2017-12-20T07:06:21.995Z,0
2017-12-20T07:06:47.470Z,0
2017-12-20T07:07:12.984Z,0
2017-12-20T07:07:38.484Z,0
2017-12-20T07:08:03.937Z,0
2017-12-20T07:08:29.431Z,0
2017-12-20T07:08:54.940Z,0
2017-12-20T07:09:20.437Z,0
2017-12-20T07:09:45.923Z,0
2017-12-20T07:10:11.437Z,0
2017-12-20T07:10:36.924Z,0
2017-12-20T07:11:02.437Z,0
2017-12-20T07:11:27.920Z,0
2017-12-20T07:11:53.464Z,0
2017-12-20T07:12:18.951Z,0
2017-12-20T07:12:44.525Z,0
2017-12-20T07:13:09.917Z,0
2017-12-20T07:13:35.412Z,0
2017-12-20T07:14:49.157Z,0
2017-12-20T07:15:14.656Z,0
2017-12-20T07:15:40.148Z,0
2017-12-20T07:17:09.207Z,0
2017-12-20T07:17:34.703Z,0
2017-12-20T07:18:00.164Z,0
2017-12-20T07:18:25.694Z,0
2017-12-20T07:18:51.185Z,0
2017-12-20T07:19:16.716Z,0
2017-12-20T07:19:42.463Z,0
2017-12-20T07:20:07.738Z,0
2017-12-20T07:20:33.306Z,0
2017-12-20T07:20:58.795Z,0
2017-12-20T07:22:22.756Z,0
2017-12-20T07:22:48.254Z,0
2017-12-20T07:23:13.747Z,0
2017-12-20T07:23:39.215Z,0
2017-12-20T07:24:04.737Z,0
2017-12-20T07:24:30.270Z,0
2017-12-20T07:24:55.744Z,0
2017-12-20T07:25:21.229Z,0
2017-12-20T07:25:46.739Z,0
2017-12-20T07:26:12.245Z,0
2017-12-20T07:26:37.749Z,0
2017-12-20T07:27:03.211Z,0
2017-12-20T07:27:28.706Z,0
2017-12-20T07:27:54.200Z,0
2017-12-20T07:28:19.667Z,0
2017-12-20T07:28:45.174Z,0
2017-12-20T07:29:10.681Z,0
2017-12-20T07:29:36.203Z,0
2017-12-20T07:30:01.672Z,0
2017-12-20T07:30:27.128Z,0
2017-12-20T07:30:52.627Z,0
2017-12-20T07:31:18.150Z,0
2017-12-20T07:31:43.648Z,0
2017-12-20T07:32:09.143Z,0
2017-12-20T07:32:34.665Z,0
2017-12-20T07:33:00.135Z,0
2017-12-20T07:33:25.612Z,0
2017-12-20T07:33:51.187Z,0
2017-12-20T07:34:16.681Z,0
2017-12-20T07:34:42.154Z,0
2017-12-20T07:35:07.660Z,0
2017-12-20T07:35:33.152Z,0
2017-12-20T07:35:58.622Z,0
2017-12-20T07:37:12.468Z,0
2017-12-20T07:37:37.915Z,0
2017-12-20T07:38:03.419Z,0
2017-12-20T07:38:28.921Z,0
2017-12-20T07:38:54.374Z,0
2017-12-20T07:39:19.915Z,0
2017-12-20T07:39:45.401Z,0
2017-12-20T07:40:10.909Z,0
2017-12-20T07:40:36.405Z,0
2017-12-20T07:41:01.902Z,0
2017-12-20T07:41:27.386Z,0
2017-12-20T07:41:52.892Z,0
2017-12-20T07:42:18.390Z,0
2017-12-20T07:42:43.902Z,0
2017-12-20T07:43:09.449Z,0
2017-12-20T07:43:34.978Z,0
2017-12-20T07:44:00.479Z,0
2017-12-20T07:44:25.950Z,0
2017-12-20T07:44:51.488Z,0
2017-12-20T07:45:16.942Z,5
2017-12-20T07:45:42.418Z,5
2017-12-20T07:46:07.942Z,5
2017-12-20T07:46:33.415Z,5
2017-12-20T07:46:58.924Z,5
2017-12-20T07:47:24.384Z,5
2017-12-20T07:47:49.901Z,5
2017-12-20T07:48:15.386Z,5
2017-12-20T07:48:40.862Z,5
2017-12-20T07:49:06.366Z,5
2017-12-20T07:49:31.825Z,5
2017-12-20T07:49:57.353Z,5
2017-12-20T07:50:22.880Z,5
2017-12-20T07:50:48.387Z,5
2017-12-20T07:51:13.866Z,5
2017-12-20T07:51:39.378Z,5
2017-12-20T07:52:04.968Z,5
2017-12-20T07:52:30.547Z,5
2017-12-20T07:52:56.027Z,5
2017-12-20T07:53:21.518Z,5
2017-12-20T07:53:47.025Z,5
2017-12-20T07:54:12.503Z,5
2017-12-20T07:54:37.989Z,5
2017-12-20T07:55:03.493Z,10
2017-12-20T07:55:29.003Z,10
2017-12-20T07:55:54.479Z,10
2017-12-20T07:56:20.224Z,10
2017-12-20T07:56:45.759Z,10
2017-12-20T07:57:11.247Z,10
2017-12-20T07:57:36.752Z,10
2017-12-20T07:58:02.359Z,10
2017-12-20T07:58:28.018Z,10
2017-12-20T07:58:53.476Z,10
2017-12-20T07:59:19.026Z,15
2017-12-20T07:59:44.611Z,15
2017-12-20T08:00:10.044Z,15
2017-12-20T08:00:35.543Z,15
2017-12-20T08:01:01.030Z,15
2017-12-20T08:01:26.646Z,15
2017-12-20T08:01:52.000Z,15
2017-12-20T08:02:17.712Z,15
2017-12-20T08:02:43.190Z,15
2017-12-20T08:03:08.709Z,15
2017-12-20T08:03:34.520Z,15
2017-12-20T08:03:59.970Z,15
2017-12-20T08:04:25.553Z,15
2017-12-20T08:04:51.010Z,15
2017-12-20T08:05:16.512Z,15
2017-12-20T08:05:41.991Z,15
2017-12-20T08:06:07.458Z,15
2017-12-20T08:06:32.993Z,10
2017-12-20T08:06:58.487Z,10
2017-12-20T08:07:24.015Z,10
2017-12-20T08:07:49.546Z,10
2017-12-20T08:08:15.041Z,10
2017-12-20T08:08:40.521Z,10
2017-12-20T08:09:06.009Z,15
2017-12-20T08:09:31.477Z,15
2017-12-20T08:09:57.005Z,15
2017-12-20T08:10:22.489Z,15
2017-12-20T08:10:47.975Z,10
2017-12-20T08:11:13.482Z,10
2017-12-20T08:11:38.998Z,10
2017-12-20T08:12:04.488Z,15
2017-12-20T08:12:29.995Z,15
2017-12-20T08:12:55.478Z,15
2017-12-20T08:13:20.992Z,15
2017-12-20T08:13:46.513Z,15
2017-12-20T08:14:12.123Z,15
2017-12-20T08:14:37.762Z,15
2017-12-20T08:15:03.289Z,15
2017-12-20T08:15:28.763Z,15
2017-12-20T08:16:47.735Z,15
2017-12-20T08:17:13.267Z,15
2017-12-20T08:17:38.755Z,15
2017-12-20T08:18:04.244Z,15
2017-12-20T08:18:29.845Z,15
2017-12-20T08:18:55.429Z,15
2017-12-20T08:19:20.856Z,20
2017-12-20T08:19:46.345Z,20
2017-12-20T08:20:11.827Z,20
2017-12-20T08:20:37.307Z,20
2017-12-20T08:21:02.787Z,20
2017-12-20T08:21:28.277Z,20
2017-12-20T08:21:53.842Z,20
2017-12-20T08:22:19.289Z,20
2017-12-20T08:22:44.773Z,20
2017-12-20T08:23:10.369Z,20
2017-12-20T08:23:35.749Z,20
2017-12-20T08:24:01.210Z,20
2017-12-20T08:24:26.704Z,20
2017-12-20T08:24:52.195Z,20
2017-12-20T08:25:17.677Z,20
2017-12-20T08:25:43.112Z,20
2017-12-20T08:26:08.643Z,20
2017-12-20T08:26:34.104Z,20
2017-12-20T08:26:59.594Z,20
2017-12-20T08:27:25.081Z,20
2017-12-20T08:27:50.720Z,20
2017-12-20T08:28:16.351Z,20
2017-12-20T08:28:41.924Z,20
2017-12-20T08:29:07.507Z,20
2017-12-20T08:31:56.450Z,20
2017-12-20T08:32:21.927Z,15
2017-12-20T08:32:47.414Z,15
2017-12-20T08:33:12.884Z,15
2017-12-20T08:33:38.404Z,15
2017-12-20T08:34:03.884Z,15
2017-12-20T08:34:29.349Z,15
2017-12-20T08:34:54.875Z,15
2017-12-20T08:35:20.347Z,15
2017-12-20T08:35:45.850Z,15
2017-12-20T08:36:11.367Z,15
2017-12-20T08:36:36.936Z,15
2017-12-20T08:37:02.450Z,15
2017-12-20T08:37:28.267Z,15
2017-12-20T08:37:53.776Z,15
2017-12-20T08:38:19.285Z,15
2017-12-20T08:38:44.838Z,20
2017-12-20T08:39:10.314Z,20
2017-12-20T08:39:35.825Z,20
2017-12-20T08:40:01.320Z,20
2017-12-20T08:41:20.557Z,20
2017-12-20T08:41:46.045Z,20
2017-12-20T08:43:15.096Z,20
2017-12-20T08:43:40.586Z,25
2017-12-20T08:44:06.119Z,25
2017-12-20T08:44:31.579Z,25
2017-12-20T08:44:57.110Z,25
2017-12-20T08:45:22.610Z,25
2017-12-20T08:45:48.059Z,25
2017-12-20T08:46:13.539Z,25
2017-12-20T08:46:39.008Z,25
2017-12-20T08:47:04.549Z,25
2017-12-20T08:47:30.051Z,25
2017-12-20T08:47:55.558Z,25
2017-12-20T08:48:21.099Z,25
2017-12-20T08:48:46.596Z,20
2017-12-20T08:49:12.086Z,20
2017-12-20T08:49:37.597Z,20
2017-12-20T08:50:03.023Z,20
2017-12-20T08:50:28.485Z,20
2017-12-20T08:50:53.978Z,20
2017-12-20T08:51:19.525Z,20
2017-12-20T08:51:45.019Z,20
2017-12-20T08:52:10.493Z,20
2017-12-20T08:52:35.970Z,20
2017-12-20T08:53:01.506Z,20
2017-12-20T08:53:27.017Z,20
2017-12-20T08:53:52.542Z,20
2017-12-20T08:54:18.076Z,25
2017-12-20T08:54:43.609Z,25
2017-12-20T08:55:09.145Z,25
2017-12-20T08:55:34.670Z,25
2017-12-20T08:56:00.164Z,25
2017-12-20T08:56:25.644Z,25
2017-12-20T08:56:51.189Z,30
2017-12-20T08:57:16.680Z,30
2017-12-20T08:57:42.197Z,30
2017-12-20T08:58:07.657Z,30
2017-12-20T08:58:33.145Z,30
2017-12-20T08:58:58.643Z,30
2017-12-20T08:59:24.094Z,30
2017-12-20T08:59:49.594Z,30
2017-12-20T09:00:15.083Z,30
2017-12-20T09:00:40.587Z,30
2017-12-20T09:01:06.123Z,30
2017-12-20T09:01:31.606Z,35
2017-12-20T09:01:57.094Z,35
2017-12-20T09:02:22.621Z,35
2017-12-20T09:02:48.122Z,35
2017-12-20T09:03:13.621Z,35
2017-12-20T09:03:39.091Z,35
2017-12-20T09:04:04.566Z,35
2017-12-20T09:04:30.099Z,40
2017-12-20T09:04:55.569Z,40
2017-12-20T09:05:21.070Z,40
2017-12-20T09:05:46.552Z,40
2017-12-20T09:06:12.039Z,40
2017-12-20T09:06:37.542Z,45
2017-12-20T09:07:03.060Z,45
2017-12-20T09:07:28.593Z,45
2017-12-20T09:07:54.084Z,45
2017-12-20T09:08:19.558Z,45
2017-12-20T09:08:45.013Z,45
2017-12-20T09:09:10.547Z,45
2017-12-20T09:09:36.162Z,45
2017-12-20T09:10:01.620Z,45
2017-12-20T09:10:27.078Z,50
2017-12-20T09:10:52.561Z,50
2017-12-20T09:11:18.077Z,50
2017-12-20T09:11:43.586Z,50
2017-12-20T09:12:09.072Z,50
2017-12-20T09:13:17.781Z,55
2017-12-20T09:13:43.293Z,60
2017-12-20T09:14:08.774Z,60
2017-12-20T09:14:34.231Z,60
2017-12-20T09:14:59.724Z,60
2017-12-20T09:15:25.261Z,60
2017-12-20T09:15:50.756Z,55
2017-12-20T09:16:16.245Z,55
2017-12-20T09:16:41.721Z,55
2017-12-20T09:17:07.226Z,55
2017-12-20T09:17:32.727Z,55
2017-12-20T09:17:58.245Z,55
2017-12-20T09:18:23.763Z,55
2017-12-20T09:18:49.231Z,55
2017-12-20T09:19:14.714Z,50
2017-12-20T09:19:40.252Z,50
2017-12-20T09:20:05.761Z,50
2017-12-20T09:20:31.221Z,50
2017-12-20T09:20:56.730Z,50
2017-12-20T09:21:22.213Z,50
2017-12-20T09:21:47.715Z,50
2017-12-20T09:22:13.325Z,50
2017-12-20T09:22:38.833Z,55
2017-12-20T09:23:04.389Z,55
2017-12-20T09:23:29.840Z,55
2017-12-20T09:23:55.315Z,55
2017-12-20T09:24:20.764Z,55
2017-12-20T09:25:49.904Z,60
2017-12-20T09:26:15.411Z,60
2017-12-20T09:26:40.890Z,60
2017-12-20T09:27:06.395Z,60
2017-12-20T09:27:31.910Z,60
2017-12-20T09:27:57.394Z,60
2017-12-20T09:28:22.880Z,60
2017-12-20T09:28:48.401Z,55
2017-12-20T09:29:13.883Z,55
2017-12-20T09:29:39.393Z,55
2017-12-20T09:30:04.902Z,55
2017-12-20T09:30:30.386Z,50
2017-12-20T09:30:55.856Z,50
2017-12-20T09:31:21.367Z,50
2017-12-20T09:31:46.837Z,50
2017-12-20T09:32:12.362Z,50
2017-12-20T09:32:37.866Z,55
2017-12-20T09:33:03.426Z,55
2017-12-20T09:33:28.877Z,55
2017-12-20T09:33:54.464Z,55
2017-12-20T09:34:19.968Z,55
2017-12-20T09:34:45.550Z,55
2017-12-20T09:35:11.043Z,60
2017-12-20T09:35:36.623Z,55
2017-12-20T09:36:02.129Z,55
2017-12-20T09:36:27.646Z,50
2017-12-20T09:36:53.091Z,50
2017-12-20T09:37:18.581Z,55
2017-12-20T09:37:44.096Z,55
2017-12-20T09:38:09.637Z,55
2017-12-20T09:38:35.138Z,50
2017-12-20T09:39:00.573Z,50
2017-12-20T09:39:26.069Z,50
2017-12-20T09:39:51.563Z,50
2017-12-20T09:40:17.035Z,50
2017-12-20T09:40:42.520Z,50
2017-12-20T09:41:08.036Z,50
2017-12-20T09:41:33.520Z,55
2017-12-20T09:41:59.015Z,55
2017-12-20T09:42:24.513Z,55
2017-12-20T09:42:50.025Z,55
2017-12-20T09:43:15.487Z,55
2017-12-20T09:43:40.960Z,50
2017-12-20T09:44:06.482Z,50
2017-12-20T09:44:32.719Z,45
2017-12-20T09:44:57.813Z,45
2017-12-20T09:45:23.299Z,45
2017-12-20T09:45:48.846Z,45
2017-12-20T09:46:14.377Z,50
2017-12-20T09:46:39.796Z,50
2017-12-20T09:47:05.347Z,50
2017-12-20T09:47:30.800Z,50
2017-12-20T09:47:56.239Z,50
2017-12-20T09:48:21.717Z,50
2017-12-20T09:48:47.223Z,50
2017-12-20T09:49:12.704Z,50
2017-12-20T09:49:38.124Z,50
2017-12-20T09:50:03.638Z,50
2017-12-20T09:50:29.079Z,50
2017-12-20T09:50:54.549Z,50
2017-12-20T09:51:19.985Z,50
2017-12-20T09:51:45.458Z,55
2017-12-20T09:52:10.903Z,55
2017-12-20T09:52:36.371Z,60
2017-12-20T09:53:01.843Z,60
2017-12-20T09:53:27.329Z,60
2017-12-20T09:53:52.816Z,60
2017-12-20T09:54:18.331Z,60
2017-12-20T09:54:43.836Z,60
2017-12-20T09:55:52.567Z,60
2017-12-20T09:56:18.063Z,60
2017-12-20T09:56:43.602Z,65
2017-12-20T09:57:09.152Z,65
2017-12-20T09:57:34.600Z,65
2017-12-20T09:58:00.081Z,70
2017-12-20T09:58:25.587Z,70
2017-12-20T09:58:51.124Z,70
2017-12-20T09:59:16.603Z,70
2017-12-20T09:59:42.123Z,70
2017-12-20T10:00:07.636Z,70
2017-12-20T10:00:33.259Z,70
2017-12-20T10:00:58.614Z,75
2017-12-20T10:01:24.108Z,75
2017-12-20T10:01:49.587Z,75
2017-12-20T10:02:15.123Z,80
2017-12-20T10:02:40.635Z,80
2017-12-20T10:03:06.114Z,80
2017-12-20T10:03:31.607Z,80
2017-12-20T10:03:57.123Z,85
2017-12-20T10:04:22.657Z,85
2017-12-20T10:04:48.133Z,85
2017-12-20T10:05:13.607Z,85
2017-12-20T10:05:39.093Z,85
2017-12-20T10:06:58.061Z,80
2017-12-20T10:07:23.568Z,80
2017-12-20T10:07:49.068Z,80
2017-12-20T10:08:14.612Z,80
2017-12-20T10:08:40.066Z,80
2017-12-20T10:09:05.741Z,85
2017-12-20T10:09:31.134Z,85
2017-12-20T10:09:56.625Z,80
2017-12-20T10:10:22.380Z,80
2017-12-20T10:10:47.925Z,80
2017-12-20T10:11:13.432Z,80
2017-12-20T10:11:38.925Z,80
2017-12-20T10:12:04.448Z,80
2017-12-20T10:12:29.955Z,75
2017-12-20T10:12:55.460Z,75
2017-12-20T10:13:21.002Z,70
2017-12-20T10:13:46.462Z,75
2017-12-20T10:14:11.999Z,80
2017-12-20T10:14:37.518Z,85
2017-12-20T10:15:03.017Z,90
2017-12-20T10:15:28.489Z,85
2017-12-20T10:15:54.142Z,85
2017-12-20T10:16:19.662Z,85
2017-12-20T10:16:45.226Z,85
2017-12-20T10:17:10.717Z,85
2017-12-20T10:17:36.189Z,85
2017-12-20T10:18:01.736Z,85
2017-12-20T10:18:27.217Z,90
2017-12-20T10:18:52.700Z,85
2017-12-20T10:19:18.205Z,85
2017-12-20T10:19:43.751Z,85
2017-12-20T10:20:09.242Z,85
2017-12-20T10:20:34.827Z,85
2017-12-20T10:21:00.327Z,80
2017-12-20T10:21:25.887Z,80
2017-12-20T10:21:51.417Z,80
2017-12-20T10:22:16.921Z,80
2017-12-20T10:23:35.944Z,80
2017-12-20T10:24:01.416Z,80
2017-12-20T10:24:26.941Z,80
2017-12-20T10:24:52.459Z,80
2017-12-20T10:25:18.045Z,80
2017-12-20T10:25:43.542Z,80
2017-12-20T10:26:09.336Z,80
2017-12-20T10:26:34.955Z,80
2017-12-20T10:27:00.486Z,75
2017-12-20T10:28:19.318Z,70
2017-12-20T10:28:44.790Z,70
2017-12-20T10:29:10.300Z,70
2017-12-20T10:29:35.786Z,70
2017-12-20T10:30:01.271Z,70
2017-12-20T10:30:26.761Z,65
2017-12-20T10:30:52.280Z,65
2017-12-20T10:31:17.785Z,70
2017-12-20T10:31:43.319Z,70
2017-12-20T10:32:08.807Z,75
2017-12-20T10:32:34.367Z,75
2017-12-20T10:32:59.850Z,75
2017-12-20T10:33:25.322Z,75
2017-12-20T10:33:50.783Z,70
2017-12-20T10:34:16.304Z,65
2017-12-20T10:34:41.813Z,60
2017-12-20T10:35:07.400Z,60
2017-12-20T10:35:32.840Z,60
2017-12-20T10:35:58.363Z,60
2017-12-20T10:36:23.914Z,60
2017-12-20T10:36:49.392Z,60
2017-12-20T10:37:14.846Z,60
2017-12-20T10:37:40.349Z,60
2017-12-20T10:38:05.880Z,65
2017-12-20T10:38:31.357Z,65
2017-12-20T10:38:56.864Z,60
2017-12-20T10:39:22.347Z,65
2017-12-20T10:39:47.821Z,65
2017-12-20T10:40:13.318Z,65
2017-12-20T10:40:38.805Z,65
2017-12-20T10:41:04.301Z,65
2017-12-20T10:41:29.783Z,65
2017-12-20T10:41:55.289Z,65
2017-12-20T10:42:20.799Z,70
2017-12-20T10:42:46.241Z,65
2017-12-20T10:43:11.705Z,65
2017-12-20T10:43:37.189Z,60
2017-12-20T10:44:02.683Z,60
2017-12-20T10:44:28.202Z,60
2017-12-20T10:44:53.708Z,65
2017-12-20T10:45:19.196Z,65
2017-12-20T10:45:44.711Z,65
2017-12-20T10:46:10.230Z,65
2017-12-20T10:46:35.779Z,65
2017-12-20T10:47:01.272Z,65
2017-12-20T10:47:26.781Z,65
2017-12-20T10:47:52.323Z,65
2017-12-20T10:48:17.786Z,70
2017-12-20T10:48:43.279Z,75
2017-12-20T10:49:57.054Z,65
2017-12-20T10:50:22.560Z,70
2017-12-20T10:50:48.054Z,65
2017-12-20T10:51:13.559Z,70
2017-12-20T10:51:39.046Z,75
2017-12-20T10:52:04.532Z,75
2017-12-20T10:52:30.017Z,75
2017-12-20T10:52:55.515Z,75
2017-12-20T10:53:21.042Z,75
2017-12-20T10:53:46.512Z,80
2017-12-20T10:54:12.015Z,75
2017-12-20T10:54:37.444Z,80
2017-12-20T10:55:02.914Z,80
2017-12-20T10:55:28.333Z,75
2017-12-20T10:55:53.808Z,70
2017-12-20T10:56:19.274Z,65
2017-12-20T10:56:44.759Z,60
2017-12-20T10:57:10.262Z,65
2017-12-20T10:57:35.719Z,65
2017-12-20T10:58:01.206Z,65
2017-12-20T10:58:26.623Z,65
2017-12-20T10:58:52.082Z,70
2017-12-20T10:59:17.567Z,70
2017-12-20T10:59:43.066Z,70
2017-12-20T11:00:08.517Z,70
2017-12-20T11:00:34.017Z,70
2017-12-20T11:00:59.512Z,70
2017-12-20T11:02:13.333Z,70
2017-12-20T11:02:38.920Z,75
2017-12-20T11:03:04.399Z,75
2017-12-20T11:03:30.026Z,75
2017-12-20T11:04:48.774Z,80
2017-12-20T11:05:14.294Z,80
2017-12-20T11:05:39.776Z,85
2017-12-20T11:06:05.248Z,85
2017-12-20T11:06:30.755Z,85
2017-12-20T11:06:56.284Z,85
2017-12-20T11:07:21.795Z,85
2017-12-20T11:07:47.309Z,85
2017-12-20T11:08:12.788Z,90
2017-12-20T11:09:21.533Z,95
2017-12-20T11:09:47.035Z,90
2017-12-20T11:10:12.527Z,90
2017-12-20T11:10:38.032Z,90
2017-12-20T11:11:03.529Z,90
2017-12-20T11:11:29.041Z,90
2017-12-20T11:11:54.471Z,85
2017-12-20T11:12:19.951Z,85
2017-12-20T11:12:45.460Z,90
2017-12-20T11:13:10.978Z,85
2017-12-20T11:13:36.523Z,85
2017-12-20T11:14:02.019Z,90
2017-12-20T11:14:27.525Z,100
2017-12-20T11:14:53.009Z,100
2017-12-20T11:15:18.506Z,100
2017-12-20T11:15:43.993Z,95
2017-12-20T11:16:09.495Z,95
2017-12-20T11:16:34.982Z,95
2017-12-20T11:17:00.479Z,100
2017-12-20T11:17:25.977Z,100
2017-12-20T11:17:51.531Z,110
2017-12-20T11:18:17.014Z,110
2017-12-20T11:18:42.523Z,115
2017-12-20T11:19:08.010Z,115
2017-12-20T11:19:33.532Z,115
2017-12-20T11:19:59.016Z,115
2017-12-20T11:20:24.508Z,115
2017-12-20T11:20:49.988Z,115
2017-12-20T11:21:15.455Z,110
2017-12-20T11:21:40.950Z,105
2017-12-20T11:22:06.412Z,105
2017-12-20T11:22:31.909Z,100
2017-12-20T11:22:57.439Z,100
2017-12-20T11:23:22.960Z,100
2017-12-20T11:23:48.471Z,100
2017-12-20T11:24:13.991Z,100
2017-12-20T11:24:39.471Z,95
2017-12-20T11:25:04.959Z,95
2017-12-20T11:25:30.478Z,100
2017-12-20T11:25:56.019Z,100
2017-12-20T11:26:21.499Z,105
2017-12-20T11:27:30.210Z,110
2017-12-20T11:27:55.702Z,110
2017-12-20T11:28:21.205Z,105
2017-12-20T11:28:46.700Z,105
2017-12-20T11:29:12.201Z,105
2017-12-20T11:29:37.717Z,105
2017-12-20T11:30:03.210Z,105
2017-12-20T11:30:28.698Z,110
2017-12-20T11:30:54.146Z,105
2017-12-20T11:31:19.730Z,100
2017-12-20T11:31:45.190Z,95
2017-12-20T11:32:10.684Z,95
2017-12-20T11:32:36.154Z,100
2017-12-20T11:34:00.136Z,85
2017-12-20T11:34:25.615Z,85
2017-12-20T11:34:51.134Z,90
2017-12-20T11:35:16.661Z,100
2017-12-20T11:35:42.170Z,95
2017-12-20T11:36:07.642Z,95
2017-12-20T11:36:33.137Z,95
2017-12-20T11:36:58.628Z,95
2017-12-20T11:37:24.122Z,100
2017-12-20T11:37:49.594Z,100
2017-12-20T11:38:15.119Z,100
2017-12-20T11:38:40.594Z,100
2017-12-20T11:39:06.126Z,95
2017-12-20T11:39:31.623Z,95